Time;durP1;ratioP1;P1;durP2;ratioP2;P2;SDS_P1;SDS_P2;PMS_P1;PMS_P2;Temp;Humidity;BMP_temperature;BMP_pressure;BME280_temperature;BME280_humidity;BME280_pressure;Samples;Min_cycle;Max_cycle;Signal;HPM_P1;HPM_P2
2023/05/12 00:01:41;;;;;;;5.32;1.20;;;;;;;;;;5065913;28;20008;-70
2023/05/12 00:04:07;;;;;;;2.90;1.20;;;;;;;;;;5066840;28;20036;-69
2023/05/12 00:06:33;;;;;;;6.63;1.42;;;;;;;;;;5064051;28;20563;-69
2023/05/12 00:08:59;;;;;;;5.05;1.25;;;;;;;;;;5064417;28;20454;-70
2023/05/12 00:11:26;;;;;;;9.85;1.83;;;;;;;;;;5064528;28;20115;-72
2023/05/12 00:13:53;;;;;;;7.07;2.15;;;;;;;;;;5056618;28;20036;-69
2023/05/12 00:16:20;;;;;;;7.45;1.50;;;;;;;;;;5066124;28;20077;-70
2023/05/12 00:18:46;;;;;;;4.72;1.73;;;;;;;;;;5066270;28;20486;-69
2023/05/12 00:21:12;;;;;;;3.75;1.35;;;;;;;;;;5064930;28;20025;-69
2023/05/12 00:23:38;;;;;;;2.90;1.27;;;;;;;;;;5063612;28;20024;-69
2023/05/12 00:26:04;;;;;;;7.55;1.70;;;;;;;;;;5066330;28;20089;-68
2023/05/12 00:28:31;;;;;;;3.88;1.42;;;;;;;;;;5059980;28;20033;-69
2023/05/12 00:31:00;;;;;;;5.53;1.40;;;;;;;;;;5063334;28;20028;-68
2023/05/12 00:33:26;;;;;;;5.82;1.42;;;;;;;;;;5063552;28;20036;-69
2023/05/12 00:35:52;;;;;;;4.55;1.10;;;;;;;;;;5060671;28;20023;-69
2023/05/12 00:38:19;;;;;;;6.57;1.92;;;;;;;;;;5063633;28;20033;-69
2023/05/12 00:40:45;;;;;;;5.80;1.35;;;;;;;;;;5059151;28;20090;-69
2023/05/12 00:43:11;;;;;;;6.57;1.30;;;;;;;;;;5057319;28;20542;-68
2023/05/12 00:45:37;;;;;;;5.68;1.42;;;;;;;;;;5061467;28;20119;-68
2023/05/12 00:48:04;;;;;;;5.25;1.23;;;;;;;;;;5057060;28;20021;-68
2023/05/12 00:50:31;;;;;;;5.22;1.23;;;;;;;;;;5061934;28;20024;-69
2023/05/12 00:52:58;;;;;;;5.95;1.52;;;;;;;;;;5058658;28;20214;-69
2023/05/12 00:55:25;;;;;;;6.55;1.45;;;;;;;;;;5063220;28;20028;-69
2023/05/12 00:57:51;;;;;;;8.85;1.60;;;;;;;;;;5062840;28;20032;-68
2023/05/12 01:00:18;;;;;;;5.03;1.50;;;;;;;;;;5060540;28;20032;-68
2023/05/12 01:02:44;;;;;;;5.50;1.42;;;;;;;;;;5062045;28;20052;-69
2023/05/12 01:05:11;;;;;;;4.82;1.25;;;;;;;;;;5061643;28;20061;-68
2023/05/12 01:07:38;;;;;;;4.28;1.58;;;;;;;;;;5062991;28;20094;-69
2023/05/12 01:10:05;;;;;;;4.18;1.20;;;;;;;;;;5063073;28;20049;-69
2023/05/12 01:12:32;;;;;;;3.67;1.17;;;;;;;;;;5061478;28;20060;-69
2023/05/12 01:14:58;;;;;;;4.78;1.60;;;;;;;;;;5061841;28;20036;-68
2023/05/12 01:17:30;;;;;;;4.00;1.23;;;;;;;;;;5062259;28;20028;-69
2023/05/12 01:19:57;;;;;;;;;;;;;;;;;;5061013;28;20020;-71
2023/05/12 01:22:24;;;;;;;4.72;1.30;;;;;;;;;;5062535;28;19909;-70
2023/05/12 01:24:50;;;;;;;9.88;1.50;;;;;;;;;;5062562;28;20075;-69
2023/05/12 01:27:17;;;;;;;3.47;1.05;;;;;;;;;;5060980;28;20037;-71
2023/05/12 01:29:45;;;;;;;4.82;1.33;;;;;;;;;;5062138;28;20324;-69
2023/05/12 01:32:11;;;;;;;3.65;1.00;;;;;;;;;;5061480;28;20060;-69
2023/05/12 01:34:37;;;;;;;4.93;1.65;;;;;;;;;;5057879;28;20017;-69
2023/05/12 01:37:03;;;;;;;6.32;1.65;;;;;;;;;;5055261;28;20017;-70
2023/05/12 01:39:30;;;;;;;3.63;1.27;;;;;;;;;;5058358;28;20104;-71
2023/05/12 01:41:56;;;;;;;3.03;1.50;;;;;;;;;;5056954;28;20439;-70
2023/05/12 01:44:22;;;;;;;5.70;1.30;;;;;;;;;;5062578;28;20032;-69
2023/05/12 01:46:48;;;;;;;2.70;1.10;;;;;;;;;;5061806;28;20040;-69
2023/05/12 01:49:15;;;;;;;3.80;1.33;;;;;;;;;;5062060;28;20028;-71
2023/05/12 01:51:41;;;;;;;5.82;1.17;;;;;;;;;;5058921;28;20500;-69
2023/05/12 01:54:07;;;;;;;4.82;1.35;;;;;;;;;;5061061;28;20606;-70
2023/05/12 01:56:33;;;;;;;7.28;1.65;;;;;;;;;;5061650;28;20028;-70
2023/05/12 01:58:59;;;;;;;6.78;1.38;;;;;;;;;;5061849;28;20040;-71
2023/05/12 02:01:27;;;;;;;4.93;1.20;;;;;;;;;;5057147;28;20051;-70
2023/05/12 02:03:56;;;;;;;5.13;1.20;;;;;;;;;;5059025;28;20056;-69
2023/05/12 02:06:23;;;;;;;6.03;1.40;;;;;;;;;;5062196;28;20028;-69
2023/05/12 02:08:49;;;;;;;5.47;1.67;;;;;;;;;;5061568;28;20069;-69
2023/05/12 02:11:15;;;;;;;8.57;1.27;;;;;;;;;;5059997;28;20025;-69
2023/05/12 02:13:45;;;;;;;5.97;1.65;;;;;;;;;;5058189;28;20498;-69
2023/05/12 02:16:11;;;;;;;4.97;1.05;;;;;;;;;;5053646;28;20028;-69
2023/05/12 02:18:37;;;;;;;4.65;1.30;;;;;;;;;;5060754;28;20028;-70
2023/05/12 02:21:04;;;;;;;10.35;2.33;;;;;;;;;;5060626;28;20060;-69
2023/05/12 02:23:30;;;;;;;5.78;1.40;;;;;;;;;;5061511;28;20028;-69
2023/05/12 02:25:56;;;;;;;7.90;1.73;;;;;;;;;;5061482;28;20562;-69
2023/05/12 02:28:23;;;;;;;4.28;1.35;;;;;;;;;;5060043;28;20758;-69
2023/05/12 02:30:49;;;;;;;4.00;1.40;;;;;;;;;;5059761;28;20028;-69
2023/05/12 02:33:16;;;;;;;4.03;1.35;;;;;;;;;;5060238;28;20040;-69
2023/05/12 02:35:45;;;;;;;5.82;1.35;;;;;;;;;;5060908;28;20027;-70
2023/05/12 02:38:12;;;;;;;5.32;1.20;;;;;;;;;;5060294;28;20032;-70
2023/05/12 02:40:38;;;;;;;3.47;1.40;;;;;;;;;;5058982;28;20476;-70
2023/05/12 02:43:05;;;;;;;4.65;1.52;;;;;;;;;;5057291;28;20028;-69
2023/05/12 02:45:31;;;;;;;5.90;1.38;;;;;;;;;;5059613;28;20711;-69
2023/05/12 02:47:57;;;;;;;5.88;1.55;;;;;;;;;;5057388;28;20482;-70
2023/05/12 02:50:23;;;;;;;6.13;1.45;;;;;;;;;;5060543;28;20052;-69
2023/05/12 02:52:49;;;;;;;6.78;1.33;;;;;;;;;;5060048;28;20584;-69
2023/05/12 02:55:16;;;;;;;6.10;1.30;;;;;;;;;;5056280;28;20039;-69
2023/05/12 02:57:42;;;;;;;5.15;1.25;;;;;;;;;;5063431;28;20028;-69
2023/05/12 03:00:09;;;;;;;3.67;1.15;;;;;;;;;;5057628;28;20589;-69
2023/05/12 03:02:39;;;;;;;3.28;1.15;;;;;;;;;;5059775;28;20500;-70
2023/05/12 03:05:05;;;;;;;3.50;1.10;;;;;;;;;;5058905;28;20541;-70
2023/05/12 03:07:32;;;;;;;4.00;1.30;;;;;;;;;;5054961;28;20032;-69
2023/05/12 03:09:58;;;;;;;2.45;0.98;;;;;;;;;;5057243;28;20027;-69
2023/05/12 03:12:25;;;;;;;4.05;1.20;;;;;;;;;;5058463;28;20785;-68
2023/05/12 03:14:51;;;;;;;4.13;1.08;;;;;;;;;;5058522;28;20028;-69
2023/05/12 03:17:17;;;;;;;4.45;1.30;;;;;;;;;;5057085;28;20048;-68
2023/05/12 03:19:43;;;;;;;4.63;1.38;;;;;;;;;;5058240;28;20052;-69
2023/05/12 03:22:10;;;;;;;4.18;1.42;;;;;;;;;;5057814;28;20111;-70
2023/05/12 03:24:36;;;;;;;3.70;1.50;;;;;;;;;;5058331;28;20033;-69
2023/05/12 03:27:02;;;;;;;3.83;1.33;;;;;;;;;;5059919;28;20128;-68
2023/05/12 03:29:28;;;;;;;10.60;1.52;;;;;;;;;;5060001;28;20056;-69
2023/05/12 03:31:54;;;;;;;6.07;1.38;;;;;;;;;;5057963;28;20085;-69
2023/05/12 03:34:20;;;;;;;3.60;1.17;;;;;;;;;;5055916;28;20607;-68
2023/05/12 03:36:47;;;;;;;4.55;1.70;;;;;;;;;;5058159;28;20060;-70
2023/05/12 03:39:13;;;;;;;3.65;1.25;;;;;;;;;;5059312;28;20071;-69
2023/05/12 03:41:39;;;;;;;4.15;1.33;;;;;;;;;;5052558;28;20016;-70
2023/05/12 03:44:07;;;;;;;4.10;1.10;;;;;;;;;;5059963;28;20031;-70
2023/05/12 03:46:33;;;;;;;3.97;1.60;;;;;;;;;;5058447;28;20024;-70
2023/05/12 03:49:00;;;;;;;5.00;1.58;;;;;;;;;;5058565;28;20103;-70
2023/05/12 03:51:27;;;;;;;11.75;1.83;;;;;;;;;;5060145;28;20028;-69
2023/05/12 03:53:53;;;;;;;6.63;2.08;;;;;;;;;;5050027;28;20037;-69
2023/05/12 03:56:19;;;;;;;4.57;1.65;;;;;;;;;;5059823;28;20602;-69
2023/05/12 03:58:46;;;;;;;4.35;1.60;;;;;;;;;;5056520;28;20643;-69
2023/05/12 04:01:12;;;;;;;5.53;1.48;;;;;;;;;;5060397;28;20032;-68
2023/05/12 04:03:40;;;;;;;4.85;1.25;;;;;;;;;;5059465;28;20079;-68
2023/05/12 04:06:06;;;;;;;6.18;1.40;;;;;;;;;;5058422;28;20070;-69
2023/05/12 04:08:32;;;;;;;4.57;1.83;;;;;;;;;;5057594;28;20408;-67
2023/05/12 04:10:59;;;;;;;7.00;1.60;;;;;;;;;;5059373;28;20450;-68
2023/05/12 04:13:26;;;;;;;3.00;1.15;;;;;;;;;;5059025;28;20496;-68
2023/05/12 04:15:55;;;;;;;3.67;1.30;;;;;;;;;;5052146;28;20578;-68
2023/05/12 04:18:21;;;;;;;4.88;1.33;;;;;;;;;;5052420;28;20020;-69
2023/05/12 04:20:48;;;;;;;2.75;1.17;;;;;;;;;;5057482;28;20025;-70
2023/05/12 04:23:14;;;;;;;3.40;1.20;;;;;;;;;;5060256;28;20016;-69
2023/05/12 04:25:41;;;;;;;5.35;1.33;;;;;;;;;;5059053;28;20064;-69
2023/05/12 04:28:07;;;;;;;5.85;1.40;;;;;;;;;;5062761;28;20036;-68
2023/05/12 04:30:34;;;;;;;5.75;1.75;;;;;;;;;;5061956;28;20078;-69
2023/05/12 04:33:00;;;;;;;2.85;1.10;;;;;;;;;;5063021;28;20032;-69
2023/05/12 04:35:26;;;;;;;1.80;1.10;;;;;;;;;;5063145;28;20028;-68
2023/05/12 04:37:53;;;;;;;1.60;1.15;;;;;;;;;;5061258;28;20017;-69
2023/05/12 04:40:19;;;;;;;7.57;1.60;;;;;;;;;;5059430;28;20039;-70
2023/05/12 04:42:45;;;;;;;5.20;1.50;;;;;;;;;;5057017;28;20048;-69
2023/05/12 04:45:12;;;;;;;5.03;1.90;;;;;;;;;;5062993;28;21008;-70
2023/05/12 04:47:38;;;;;;;5.32;1.33;;;;;;;;;;5062794;28;20020;-68
2023/05/12 04:50:04;;;;;;;6.07;1.60;;;;;;;;;;5062195;28;20028;-70
2023/05/12 04:52:31;;;;;;;4.32;1.50;;;;;;;;;;5060011;28;20400;-70
2023/05/12 04:54:57;;;;;;;4.43;1.10;;;;;;;;;;5062184;28;20020;-68
2023/05/12 04:57:23;;;;;;;7.40;1.40;;;;;;;;;;5056239;28;20392;-69
2023/05/12 04:59:49;;;;;;;5.80;1.70;;;;;;;;;;5057046;28;20445;-69
2023/05/12 05:02:15;;;;;;;6.70;2.03;;;;;;;;;;5060798;28;20032;-69
2023/05/12 05:04:41;;;;;;;12.77;2.35;;;;;;;;;;5060061;28;20522;-70
2023/05/12 05:07:08;;;;;;;7.10;2.58;;;;;;;;;;5060909;28;20034;-72
2023/05/12 05:09:34;;;;;;;9.20;2.85;;;;;;;;;;5062419;28;20035;-69
2023/05/12 05:12:01;;;;;;;9.07;2.90;;;;;;;;;;5062473;28;20713;-70
2023/05/12 05:14:27;;;;;;;9.85;2.65;;;;;;;;;;5058532;28;20063;-69
2023/05/12 05:16:53;;;;;;;4.60;2.42;;;;;;;;;;5061438;28;20044;-70
2023/05/12 05:19:19;;;;;;;6.07;2.40;;;;;;;;;;5060931;28;20028;-68
2023/05/12 05:21:46;;;;;;;8.68;2.60;;;;;;;;;;5057481;28;20021;-70
2023/05/12 05:24:12;;;;;;;9.20;2.50;;;;;;;;;;5062013;28;20526;-68
2023/05/12 05:26:38;;;;;;;11.05;3.03;;;;;;;;;;5062276;28;20032;-69
2023/05/12 05:29:05;;;;;;;8.25;3.13;;;;;;;;;;5061546;28;20021;-69
2023/05/12 05:31:31;;;;;;;8.52;2.80;;;;;;;;;;5062838;28;20099;-72
2023/05/12 05:33:57;;;;;;;6.85;2.40;;;;;;;;;;5057813;28;20034;-71
2023/05/12 05:36:25;;;;;;;7.72;2.30;;;;;;;;;;5062242;28;20032;-72
2023/05/12 05:38:51;;;;;;;4.35;2.13;;;;;;;;;;5058495;28;20029;-71
2023/05/12 05:41:17;;;;;;;4.55;2.60;;;;;;;;;;5059442;28;20056;-71
2023/05/12 05:43:43;;;;;;;5.35;2.15;;;;;;;;;;5056569;28;20028;-70
2023/05/12 05:46:10;;;;;;;4.00;1.90;;;;;;;;;;5063677;28;20517;-70
2023/05/12 05:48:36;;;;;;;5.15;2.35;;;;;;;;;;5063823;28;20016;-71
2023/05/12 05:51:03;;;;;;;4.28;2.70;;;;;;;;;;5063328;28;20020;-70
2023/05/12 05:53:29;;;;;;;6.70;2.78;;;;;;;;;;5063811;28;20400;-71
2023/05/12 05:55:56;;;;;;;6.72;2.90;;;;;;;;;;5061724;28;20031;-72
2023/05/12 05:58:22;;;;;;;10.13;4.72;;;;;;;;;;5056776;28;20032;-70
2023/05/12 06:00:48;;;;;;;7.47;4.03;;;;;;;;;;5063256;28;20024;-72
2023/05/12 06:03:14;;;;;;;11.52;5.75;;;;;;;;;;5061900;28;20059;-72
2023/05/12 06:05:41;;;;;;;11.27;4.50;;;;;;;;;;5062022;28;20025;-71
2023/05/12 06:08:09;;;;;;;7.95;3.03;;;;;;;;;;5063452;28;20043;-71
2023/05/12 06:10:36;;;;;;;8.85;2.95;;;;;;;;;;5054901;28;20020;-70
2023/05/12 06:13:02;;;;;;;8.73;2.60;;;;;;;;;;5063229;28;20081;-72
2023/05/12 06:15:28;;;;;;;5.25;2.53;;;;;;;;;;5064101;28;20047;-69
2023/05/12 06:17:54;;;;;;;5.95;2.47;;;;;;;;;;5063514;28;20032;-71
2023/05/12 06:20:22;;;;;;;6.82;2.30;;;;;;;;;;5060079;28;20591;-70
2023/05/12 06:22:48;;;;;;;6.95;2.35;;;;;;;;;;5057744;28;20412;-71
2023/05/12 06:25:14;;;;;;;8.32;2.75;;;;;;;;;;5058014;28;20035;-73
2023/05/12 06:27:41;;;;;;;8.35;2.30;;;;;;;;;;5059772;28;20032;-73
2023/05/12 06:30:08;;;;;;;7.32;1.95;;;;;;;;;;5059406;28;20050;-70
2023/05/12 06:32:34;;;;;;;6.15;2.28;;;;;;;;;;5058090;28;20486;-71
2023/05/12 06:35:00;;;;;;;7.78;2.03;;;;;;;;;;5060024;28;20034;-71
2023/05/12 06:37:26;;;;;;;9.05;1.98;;;;;;;;;;5061771;28;20025;-71
2023/05/12 06:39:53;;;;;;;7.40;1.80;;;;;;;;;;5068168;28;20369;-71
2023/05/12 06:42:19;;;;;;;5.47;1.67;;;;;;;;;;5064345;28;20032;-73
2023/05/12 06:44:45;;;;;;;5.80;1.98;;;;;;;;;;5060776;28;20675;-72
2023/05/12 06:47:11;;;;;;;5.43;2.30;;;;;;;;;;5062808;28;20040;-72
2023/05/12 06:49:38;;;;;;;4.47;1.80;;;;;;;;;;5061672;28;20056;-72
2023/05/12 06:52:05;;;;;;;11.30;2.25;;;;;;;;;;5055848;28;20130;-72
2023/05/12 06:54:31;;;;;;;7.75;2.70;;;;;;;;;;5060604;28;20036;-71
2023/05/12 06:56:58;;;;;;;8.50;2.20;;;;;;;;;;5062054;28;20024;-72
2023/05/12 06:59:24;;;;;;;6.90;2.35;;;;;;;;;;5060192;28;20032;-73
2023/05/12 07:01:50;;;;;;;3.85;1.92;;;;;;;;;;5061964;28;20021;-72
2023/05/12 07:04:16;;;;;;;7.13;2.28;;;;;;;;;;5057284;28;20127;-73
2023/05/12 07:06:42;;;;;;;4.57;1.80;;;;;;;;;;5057223;28;20024;-69
2023/05/12 07:09:09;;;;;;;12.95;2.25;;;;;;;;;;5058781;28;20031;-69
2023/05/12 07:11:35;;;;;;;6.75;2.38;;;;;;;;;;5059090;28;20151;-74
2023/05/12 07:14:01;;;;;;;7.03;2.15;;;;;;;;;;5061712;28;20040;-72
2023/05/12 07:16:28;;;;;;;4.40;2.40;;;;;;;;;;5060420;28;20028;-73
2023/05/12 07:18:54;;;;;;;4.65;2.10;;;;;;;;;;5061458;28;20564;-70
2023/05/12 07:21:20;;;;;;;4.88;2.00;;;;;;;;;;5058906;28;20031;-73
2023/05/12 07:23:47;;;;;;;6.28;2.58;;;;;;;;;;5061021;28;20024;-72
2023/05/12 07:26:14;;;;;;;8.15;1.95;;;;;;;;;;5061258;28;20637;-72
2023/05/12 07:28:40;;;;;;;5.47;2.03;;;;;;;;;;5060098;28;20036;-73
2023/05/12 07:31:07;;;;;;;5.90;2.22;;;;;;;;;;5055559;28;20020;-74
2023/05/12 07:33:34;;;;;;;6.57;1.92;;;;;;;;;;5061994;28;20036;-72
2023/05/12 07:36:01;;;;;;;5.55;2.00;;;;;;;;;;5057397;28;20025;-72
2023/05/12 07:38:27;;;;;;;6.95;2.33;;;;;;;;;;5060462;28;20027;-73
2023/05/12 07:40:54;;;;;;;4.82;1.52;;;;;;;;;;5059184;28;20048;-72
2023/05/12 07:43:20;;;;;;;4.28;1.95;;;;;;;;;;5058972;28;20032;-73
2023/05/12 07:45:46;;;;;;;5.07;1.67;;;;;;;;;;5059699;28;20062;-70
2023/05/12 07:48:13;;;;;;;8.05;2.60;;;;;;;;;;5056378;28;20037;-73
2023/05/12 07:50:39;;;;;;;6.57;2.00;;;;;;;;;;5060999;28;20020;-71
2023/05/12 07:53:06;;;;;;;5.63;2.40;;;;;;;;;;5059934;28;20090;-72
2023/05/12 07:55:32;;;;;;;4.60;2.53;;;;;;;;;;5061764;28;20028;-69
2023/05/12 07:57:59;;;;;;;6.47;2.42;;;;;;;;;;5061770;28;20052;-73
2023/05/12 08:00:25;;;;;;;4.80;2.40;;;;;;;;;;5060697;28;20040;-72
2023/05/12 08:02:52;;;;;;;4.68;2.33;;;;;;;;;;5061190;28;20035;-71
2023/05/12 08:05:19;;;;;;;7.57;2.72;;;;;;;;;;5064637;28;20060;-72
2023/05/12 08:07:46;;;;;;;5.68;2.42;;;;;;;;;;5062002;28;20016;-71
2023/05/12 08:10:12;;;;;;;10.23;3.15;;;;;;;;;;5063979;28;20116;-72
2023/05/12 08:12:39;;;;;;;7.53;2.53;;;;;;;;;;5065074;28;20016;-71
2023/05/12 08:15:06;;;;;;;8.27;3.25;;;;;;;;;;5062623;28;20078;-71
2023/05/12 08:17:32;;;;;;;9.52;3.10;;;;;;;;;;5064659;28;20063;-71
2023/05/12 08:19:58;;;;;;;11.57;3.15;;;;;;;;;;5064782;28;20103;-70
2023/05/12 08:22:24;;;;;;;9.50;2.72;;;;;;;;;;5065440;28;20021;-72
2023/05/12 08:24:51;;;;;;;9.13;2.65;;;;;;;;;;5065779;28;20025;-71
2023/05/12 08:27:18;;;;;;;6.28;2.30;;;;;;;;;;5063268;28;20365;-72
2023/05/12 08:29:44;;;;;;;4.40;2.10;;;;;;;;;;5062900;28;20558;-72
2023/05/12 08:32:10;;;;;;;7.25;2.33;;;;;;;;;;5057522;28;20107;-71
2023/05/12 08:34:37;;;;;;;7.13;2.28;;;;;;;;;;5065113;28;20486;-71
2023/05/12 08:37:03;;;;;;;7.43;2.20;;;;;;;;;;5063292;28;20029;-71
2023/05/12 08:39:30;;;;;;;5.55;2.03;;;;;;;;;;5062746;28;20107;-71
2023/05/12 08:42:09;;;;;;;9.35;2.45;;;;;;;;;;5057867;28;20415;-70
2023/05/12 08:44:37;;;;;;;5.00;2.20;;;;;;;;;;5062637;28;20033;-72
2023/05/12 08:47:03;;;;;;;7.15;2.60;;;;;;;;;;5063253;28;20636;-68
2023/05/12 08:49:31;;;;;;;11.73;2.63;;;;;;;;;;5065474;28;20029;-71
2023/05/12 08:51:59;;;;;;;7.22;2.88;;;;;;;;;;5063017;28;20026;-71
2023/05/12 08:54:26;;;;;;;7.22;2.30;;;;;;;;;;5065634;28;20111;-72
2023/05/12 08:56:53;;;;;;;10.75;2.40;;;;;;;;;;5060067;28;20519;-73
2023/05/12 08:59:19;;;;;;;8.98;2.72;;;;;;;;;;5061513;28;20040;-72
2023/05/12 09:01:47;;;;;;;6.22;1.98;;;;;;;;;;5064696;28;20100;-72
2023/05/12 09:04:16;;;;;;;7.07;2.55;;;;;;;;;;5065139;28;20048;-72
2023/05/12 09:06:43;;;;;;;8.05;2.60;;;;;;;;;;5061478;28;20373;-71
2023/05/12 09:09:10;;;;;;;6.82;2.20;;;;;;;;;;5063330;28;20082;-68
2023/05/12 09:11:36;;;;;;;6.00;1.90;;;;;;;;;;5061662;28;20137;-69
2023/05/12 09:14:05;;;;;;;9.15;2.22;;;;;;;;;;5062556;28;20043;-69
2023/05/12 09:16:33;;;;;;;4.78;1.90;;;;;;;;;;5054506;28;20037;-70
2023/05/12 09:19:00;;;;;;;4.90;1.88;;;;;;;;;;5063818;28;20563;-71
2023/05/12 09:21:27;;;;;;;7.50;2.90;;;;;;;;;;5060377;28;20064;-70
2023/05/12 09:23:57;;;;;;;9.15;2.65;;;;;;;;;;5063075;28;20032;-70
2023/05/12 09:26:24;;;;;;;7.13;1.90;;;;;;;;;;5063971;28;20393;-71
2023/05/12 09:28:52;;;;;;;7.35;2.50;;;;;;;;;;5063115;28;20025;-71
2023/05/12 09:31:19;;;;;;;8.40;2.00;;;;;;;;;;5058077;28;20025;-72
2023/05/12 09:33:46;;;;;;;13.43;2.83;;;;;;;;;;5062331;28;20036;-72
2023/05/12 09:36:17;;;;;;;8.85;3.10;;;;;;;;;;5060704;28;20116;-72
2023/05/12 09:38:43;;;;;;;5.18;2.03;;;;;;;;;;5056643;28;20222;-71
2023/05/12 09:41:09;;;;;;;6.40;2.70;;;;;;;;;;5059588;28;20024;-70
2023/05/12 09:43:36;;;;;;;5.28;2.20;;;;;;;;;;5063166;28;21463;-67
2023/05/12 09:46:05;;;;;;;8.30;2.90;;;;;;;;;;5061303;28;20158;-71
2023/05/12 09:48:32;;;;;;;8.07;2.63;;;;;;;;;;5059318;28;20082;-71
2023/05/12 09:50:58;;;;;;;5.25;2.45;;;;;;;;;;5062913;28;20456;-70
2023/05/12 09:53:25;;;;;;;12.82;2.80;;;;;;;;;;5063462;28;20490;-69
2023/05/12 09:55:51;;;;;;;11.00;3.00;;;;;;;;;;5060739;28;20163;-71
2023/05/12 09:58:19;;;;;;;8.10;2.65;;;;;;;;;;5060701;28;20082;-68
2023/05/12 10:00:45;;;;;;;8.07;2.30;;;;;;;;;;5055855;28;20036;-73
2023/05/12 10:03:13;;;;;;;3.53;1.75;;;;;;;;;;5054361;28;20029;-72
2023/05/12 10:06:02;;;;;;;6.93;2.28;;;;;;;;;;5059748;28;20555;-71
2023/05/12 10:08:44;;;;;;;6.57;2.10;;;;;;;;;;5060583;28;20029;-72
2023/05/12 10:11:10;;;;;;;8.45;2.55;;;;;;;;;;5058192;28;20546;-69
2023/05/12 10:13:38;;;;;;;6.40;2.00;;;;;;;;;;5064045;28;20607;-71
2023/05/12 10:16:05;;;;;;;6.63;2.35;;;;;;;;;;5061033;28;20031;-71
2023/05/12 10:18:33;;;;;;;9.75;2.78;;;;;;;;;;5062740;28;20649;-73
2023/05/12 10:21:00;;;;;;;14.02;3.13;;;;;;;;;;5062406;28;20020;-69
2023/05/12 10:23:26;;;;;;;8.15;2.72;;;;;;;;;;5063144;28;20032;-73
2023/05/12 10:26:01;;;;;;;7.78;2.70;;;;;;;;;;5056152;28;20537;-71
2023/05/12 10:28:30;;;;;;;7.18;2.85;;;;;;;;;;5062990;28;20055;-72
2023/05/12 10:30:57;;;;;;;7.93;2.67;;;;;;;;;;5061592;28;20140;-73
2023/05/12 10:33:24;;;;;;;3.78;2.10;;;;;;;;;;5062183;28;20040;-67
2023/05/12 10:35:51;;;;;;;5.50;2.42;;;;;;;;;;5060654;28;20099;-68
2023/05/12 10:38:20;;;;;;;8.60;2.03;;;;;;;;;;5062347;28;20056;-70
2023/05/12 10:40:58;;;;;;;11.35;2.92;;;;;;;;;;5059112;28;20385;-70
2023/05/12 10:43:25;;;;;;;9.07;2.72;;;;;;;;;;5057188;28;20051;-71
2023/05/12 10:46:10;;;;;;;6.75;2.53;;;;;;;;;;5060920;28;20028;-67
2023/05/12 10:48:37;;;;;;;8.48;2.33;;;;;;;;;;5062262;28;20044;-72
2023/05/12 10:51:10;;;;;;;8.45;2.65;;;;;;;;;;5061037;28;20108;-69
2023/05/12 10:53:39;;;;;;;6.18;2.88;;;;;;;;;;5061754;28;20443;-72
2023/05/12 10:56:05;;;;;;;4.68;2.28;;;;;;;;;;5060506;28;20029;-72
2023/05/12 10:58:32;;;;;;;4.95;2.22;;;;;;;;;;5050751;28;20465;-69
2023/05/12 11:01:06;;;;;;;4.40;2.10;;;;;;;;;;5057375;28;20480;-72
2023/05/12 11:03:33;;;;;;;6.72;2.50;;;;;;;;;;5055369;28;20044;-71
2023/05/12 11:06:08;;;;;;;6.65;2.25;;;;;;;;;;5060799;28;20025;-69
2023/05/12 11:08:36;;;;;;;7.95;2.70;;;;;;;;;;5062093;28;20438;-70
2023/05/12 11:11:02;;;;;;;6.00;2.40;;;;;;;;;;5061738;28;20694;-71
2023/05/12 11:13:29;;;;;;;11.60;3.53;;;;;;;;;;5063088;28;20048;-68
2023/05/12 11:15:57;;;;;;;8.52;3.90;;;;;;;;;;5061605;28;20048;-69
2023/05/12 11:18:23;;;;;;;10.75;4.70;;;;;;;;;;5062135;28;20032;-70
2023/05/12 11:20:50;;;;;;;7.55;3.30;;;;;;;;;;5060219;28;20493;-70
2023/05/12 11:23:27;;;;;;;6.47;2.70;;;;;;;;;;5060843;28;20944;-67
2023/05/12 11:25:53;;;;;;;6.38;2.40;;;;;;;;;;5061775;28;20107;-68
2023/05/12 11:28:19;;;;;;;9.13;2.47;;;;;;;;;;5060314;28;20071;-67
2023/05/12 11:30:51;;;;;;;8.43;2.72;;;;;;;;;;5060642;28;20017;-67
2023/05/12 11:33:21;;;;;;;12.55;2.90;;;;;;;;;;5062132;28;20520;-68
2023/05/12 11:35:47;;;;;;;5.45;2.55;;;;;;;;;;5060448;28;20025;-68
2023/05/12 11:38:15;;;;;;;4.07;2.10;;;;;;;;;;5061405;28;20104;-67
2023/05/12 11:40:41;;;;;;;4.78;2.67;;;;;;;;;;5058704;28;20028;-67
2023/05/12 11:43:11;;;;;;;4.70;2.47;;;;;;;;;;5053788;28;20032;-69
2023/05/12 11:45:37;;;;;;;5.18;2.03;;;;;;;;;;5061633;28;20025;-69
2023/05/12 11:48:06;;;;;;;4.00;2.20;;;;;;;;;;5058564;28;20578;-68
2023/05/12 11:50:32;;;;;;;4.55;2.10;;;;;;;;;;5058969;28;20025;-69
2023/05/12 11:52:59;;;;;;;3.40;2.00;;;;;;;;;;5061942;28;20020;-68
2023/05/12 11:55:25;;;;;;;6.57;2.45;;;;;;;;;;5059912;28;20021;-68
2023/05/12 11:57:58;;;;;;;4.38;2.10;;;;;;;;;;5059872;28;20021;-67
2023/05/12 12:00:31;;;;;;;6.03;2.00;;;;;;;;;;5060590;28;20082;-71
2023/05/12 12:03:08;;;;;;;3.85;2.05;;;;;;;;;;5061562;28;20071;-70
2023/05/12 12:05:34;;;;;;;3.85;2.30;;;;;;;;;;5053784;28;20481;-72
2023/05/12 12:08:07;;;;;;;5.18;2.65;;;;;;;;;;5059381;28;20017;-72
2023/05/12 12:10:34;;;;;;;3.65;1.80;;;;;;;;;;5061194;28;20029;-69
2023/05/12 12:13:01;;;;;;;2.60;1.73;;;;;;;;;;5061695;28;20032;-70
2023/05/12 12:15:28;;;;;;;3.20;1.80;;;;;;;;;;5059335;28;20028;-71
2023/05/12 12:17:54;;;;;;;4.18;1.80;;;;;;;;;;5060460;28;20024;-69
2023/05/12 12:20:20;;;;;;;3.70;1.83;;;;;;;;;;5061562;28;20097;-71
2023/05/12 12:22:47;;;;;;;5.65;1.92;;;;;;;;;;5058804;28;20029;-71
2023/05/12 12:25:13;;;;;;;4.72;1.80;;;;;;;;;;5060749;28;20036;-71
2023/05/12 12:27:39;;;;;;;7.65;2.38;;;;;;;;;;5060136;28;20524;-70
2023/05/12 12:30:05;;;;;;;2.28;1.55;;;;;;;;;;5059072;28;20033;-71
2023/05/12 12:32:31;;;;;;;6.07;2.20;;;;;;;;;;5060100;28;20112;-69
2023/05/12 12:35:03;;;;;;;3.47;2.00;;;;;;;;;;5061279;28;20099;-69
2023/05/12 12:37:29;;;;;;;6.30;2.15;;;;;;;;;;5061378;28;20078;-69
2023/05/12 12:39:55;;;;;;;6.25;2.40;;;;;;;;;;5058349;28;20594;-70
2023/05/12 12:42:21;;;;;;;6.22;3.03;;;;;;;;;;5057754;28;20033;-70
2023/05/12 12:44:49;;;;;;;7.47;2.97;;;;;;;;;;5061252;28;20078;-71
2023/05/12 12:47:15;;;;;;;6.32;2.83;;;;;;;;;;5060560;28;20043;-71
2023/05/12 12:49:41;;;;;;;8.80;3.88;;;;;;;;;;5063179;28;20023;-68
2023/05/12 12:52:08;;;;;;;5.13;2.58;;;;;;;;;;5059930;28;20046;-70
2023/05/12 12:54:34;;;;;;;9.20;3.30;;;;;;;;;;5064913;28;20040;-70
2023/05/12 12:57:00;;;;;;;9.93;3.45;;;;;;;;;;5064013;28;20052;-70
2023/05/12 12:59:26;;;;;;;9.02;2.90;;;;;;;;;;5064141;28;20036;-69
2023/05/12 13:01:53;;;;;;;9.88;2.90;;;;;;;;;;5065046;28;20284;-69
2023/05/12 13:04:21;;;;;;;6.57;2.88;;;;;;;;;;5064627;28;20044;-69
2023/05/12 13:06:48;;;;;;;5.68;2.80;;;;;;;;;;5062225;28;20025;-69
2023/05/12 13:09:14;;;;;;;7.55;2.92;;;;;;;;;;5063610;28;20388;-70
2023/05/12 13:11:41;;;;;;;5.75;2.78;;;;;;;;;;5064938;28;20031;-69
2023/05/12 13:14:07;;;;;;;12.80;2.95;;;;;;;;;;5058498;28;20029;-71
2023/05/12 13:16:33;;;;;;;4.93;2.60;;;;;;;;;;5052161;28;20024;-69
2023/05/12 13:18:59;;;;;;;8.23;2.80;;;;;;;;;;5058910;28;20038;-71
2023/05/12 13:21:26;;;;;;;7.45;2.85;;;;;;;;;;5063460;28;20488;-70
2023/05/12 13:23:52;;;;;;;6.50;2.90;;;;;;;;;;5063104;28;20025;-67
2023/05/12 13:26:18;;;;;;;8.40;2.92;;;;;;;;;;5062909;28;20032;-71
2023/05/12 13:28:44;;;;;;;8.43;2.78;;;;;;;;;;5062920;28;20032;-67
2023/05/12 13:31:11;;;;;;;8.07;2.88;;;;;;;;;;5063617;28;20284;-70
2023/05/12 13:33:37;;;;;;;7.00;2.60;;;;;;;;;;5062370;28;20043;-68
2023/05/12 13:36:03;;;;;;;6.90;2.38;;;;;;;;;;5062504;28;20131;-70
2023/05/12 13:38:29;;;;;;;12.70;3.47;;;;;;;;;;5062496;28;21103;-68
2023/05/12 13:40:56;;;;;;;9.13;2.75;;;;;;;;;;5064163;28;20532;-66
2023/05/12 13:43:22;;;;;;;8.68;2.78;;;;;;;;;;5063369;28;20032;-66
2023/05/12 13:45:48;;;;;;;7.60;3.20;;;;;;;;;;5063454;28;20029;-67
2023/05/12 13:48:14;;;;;;;6.25;2.33;;;;;;;;;;5054241;28;20020;-70
2023/05/12 13:50:40;;;;;;;5.78;2.20;;;;;;;;;;5063814;28;20643;-71
2023/05/12 13:53:06;;;;;;;9.00;3.22;;;;;;;;;;5056333;28;20503;-69
2023/05/12 13:55:37;;;;;;;4.00;2.33;;;;;;;;;;5062164;28;20134;-70
2023/05/12 13:58:03;;;;;;;7.22;3.25;;;;;;;;;;5061785;28;20179;-69
2023/05/12 14:00:29;;;;;;;4.75;2.75;;;;;;;;;;5061727;28;20563;-67
2023/05/12 14:02:56;;;;;;;10.00;2.88;;;;;;;;;;5063298;28;20107;-69
2023/05/12 14:05:23;;;;;;;8.70;3.10;;;;;;;;;;5062903;28;20044;-71
2023/05/12 14:07:49;;;;;;;6.93;3.03;;;;;;;;;;5057855;28;20071;-71
2023/05/12 14:10:15;;;;;;;7.30;2.30;;;;;;;;;;5062783;28;20055;-70
2023/05/12 14:12:43;;;;;;;8.27;2.58;;;;;;;;;;5057639;28;20053;-69
2023/05/12 14:15:11;;;;;;;5.55;2.45;;;;;;;;;;5060545;28;20033;-70
2023/05/12 14:17:37;;;;;;;8.60;2.80;;;;;;;;;;5062864;28;20564;-70
2023/05/12 14:20:05;;;;;;;6.38;2.55;;;;;;;;;;5061082;28;20415;-67
2023/05/12 14:22:32;;;;;;;8.77;2.30;;;;;;;;;;5060136;28;20021;-70
2023/05/12 14:24:58;;;;;;;10.70;2.58;;;;;;;;;;5063135;28;20019;-70
2023/05/12 14:27:24;;;;;;;5.25;2.15;;;;;;;;;;5062385;28;20161;-71
2023/05/12 14:29:51;;;;;;;5.60;2.33;;;;;;;;;;5061720;28;20107;-71
2023/05/12 14:32:17;;;;;;;11.18;3.03;;;;;;;;;;5063020;28;20066;-71
2023/05/12 14:34:43;;;;;;;9.50;2.95;;;;;;;;;;5062848;28;20041;-69
2023/05/12 14:37:09;;;;;;;4.60;2.30;;;;;;;;;;5060105;28;20024;-71
2023/05/12 14:39:35;;;;;;;5.80;2.40;;;;;;;;;;5059481;28;20029;-71
2023/05/12 14:42:02;;;;;;;7.20;2.47;;;;;;;;;;5057163;28;20033;-70